This is the latest recevied weather packets stored in our database for station/object VO2AGO. If no packets are shown the sender has not sent any weather packets the latest 10 day(s).
| Time | Temp. | Humidity | Pressure | Rain* | Wind** | Luminosity | Snow |
|---|---|---|---|---|---|---|---|
| 1777314503 | 17.22° C | 41% | 102.4 hPa | 0 mm | 0 m/s | 1832 W/m² | - |
| 1777314052 | 17.78° C | 40% | 102.4 hPa | 0 mm | 0 m/s | 1680 W/m² | - |
| 1777313602 | 16.11° C | 42% | 102.4 hPa | 0 mm | 0 m/s | 1553 W/m² | - |
| 1777313152 | 17.78° C | 41% | 102.4 hPa | 0 mm | 0 m/s | 1845 W/m² | - |
| 1777312702 | 17.78° C | 40% | 102.4 hPa | 0 mm | 0 m/s | 1817 W/m² | - |
| 1777312252 | 18.33° C | 40% | 102.4 hPa | 0 mm | 0 m/s | 1790 W/m² | - |
| 1777311802 | 17.78° C | 41% | 102.4 hPa | 0 mm | 0 m/s | 1720 W/m² | - |
| 1777311353 | 17.78° C | 41% | 102.4 hPa | 0 mm | 0 m/s | 1679 W/m² | - |
| 1777310902 | 16.67° C | 42% | 102.4 hPa | 0 mm | 0 m/s | 1821 W/m² | - |
| 1777310453 | 17.78° C | 39% | 102.4 hPa | 0 mm | 0 m/s | 1627 W/m² | - |
| 1777310002 | 18.33° C | 40% | 102.4 hPa | 0 mm | 0 m/s | 1732 W/m² | - |
| 1777309552 | 17.78° C | 40% | 102.4 hPa | 0 mm | 0 m/s | 1717 W/m² | - |
| 1777309102 | 18.89° C | 38% | 102.4 hPa | 0 mm | 0 m/s | 1703 W/m² | - |
| 1777308652 | 17.78° C | 40% | 102.4 hPa | 0 mm | 0 m/s | 1689 W/m² | - |
| 1777308203 | 20° C | 36% | 102.4 hPa | 0 mm | 0 m/s | 1691 W/m² | - |
| 1777307752 | 18.89° C | 37% | 102.4 hPa | 0 mm | 0 m/s | 1697 W/m² | - |
| 1777307301 | 18.89° C | 37% | 102.4 hPa | 0 mm | 0 m/s | 1708 W/m² | - |
| 1777306852 | 19.44° C | 36% | 102.5 hPa | 0 mm | 0 m/s | 1704 W/m² | - |
| 1777306404 | 18.89° C | 37% | 102.4 hPa | 0 mm | 0 m/s | 1727 W/m² | - |
| 1777305952 | 18.89° C | 37% | 102.5 hPa | 0 mm | 0 m/s | 1720 W/m² | - |
| 1777305502 | 20° C | 35% | 102.4 hPa | 0 mm | 0 m/s | 1724 W/m² | - |
| 1777305052 | 20.56° C | 35% | 102.5 hPa | 0 mm | 0 m/s | 1742 W/m² | - |
| 1777304603 | 20.56° C | 34% | 102.5 hPa | 0 mm | 0 m/s | 1760 W/m² | - |
| 1777304152 | 20° C | 33% | 102.5 hPa | 0 mm | 0 m/s | 1779 W/m² | - |
| 1777303702 | 21.11° C | 33% | 102.5 hPa | 0 mm | 0 m/s | 1800 W/m² | - |
* Rain latest hour (hover to see other rain measurements)
** Current wind speed in m/s (hover to see current wind gust speed)